createdAt,value
2023-05-19T00:01:19.262Z,9.78
2023-05-19T00:03:54.780Z,9.83
2023-05-19T00:06:26.991Z,9.53
2023-05-19T00:09:03.458Z,9.43
2023-05-19T00:11:38.937Z,10.20
2023-05-19T00:14:09.406Z,9.55
2023-05-19T00:16:39.974Z,9.78
2023-05-19T00:19:12.410Z,8.95
2023-05-19T00:21:42.163Z,9.50
2023-05-19T00:24:11.779Z,9.08
2023-05-19T00:26:41.589Z,10.15
2023-05-19T00:29:10.190Z,9.20
2023-05-19T00:31:40.005Z,8.78
2023-05-19T00:34:11.141Z,8.78
2023-05-19T00:36:41.463Z,8.43
2023-05-19T00:39:11.204Z,8.55
2023-05-19T00:41:40.475Z,8.43
2023-05-19T00:44:09.250Z,8.45
2023-05-19T00:46:39.870Z,8.48
2023-05-19T00:49:09.402Z,8.28
2023-05-19T00:51:39.721Z,8.03
2023-05-19T00:54:08.821Z,8.15
2023-05-19T00:56:40.278Z,8.05
2023-05-19T00:59:10.109Z,8.03
2023-05-19T01:01:40.188Z,7.85
2023-05-19T01:04:11.518Z,7.53
2023-05-19T01:06:42.087Z,7.60
2023-05-19T01:09:11.702Z,7.40
2023-05-19T01:11:41.159Z,7.95
2023-05-19T01:14:11.019Z,8.65
2023-05-19T01:17:07.793Z,7.62
2023-05-19T01:19:57.659Z,8.20
2023-05-19T01:22:38.230Z,7.92
2023-05-19T01:25:29.285Z,8.43
2023-05-19T01:28:27.935Z,8.30
2023-05-19T01:30:58.608Z,7.22
2023-05-19T01:33:29.313Z,6.87
2023-05-19T01:35:58.203Z,6.70
2023-05-19T01:38:29.016Z,6.55
2023-05-19T01:41:00.143Z,6.62
2023-05-19T01:43:30.302Z,6.00
2023-05-19T01:45:59.494Z,6.37
2023-05-19T01:48:28.708Z,6.37
2023-05-19T01:51:00.578Z,6.30
2023-05-19T01:53:30.666Z,5.83
2023-05-19T01:56:00.502Z,5.87
2023-05-19T01:58:47.406Z,5.85
2023-05-19T02:01:39.063Z,6.00
2023-05-19T02:04:32.858Z,5.70
2023-05-19T02:07:09.991Z,5.60
2023-05-19T02:09:53.617Z,6.00
2023-05-19T02:12:35.668Z,5.28
2023-05-19T02:15:11.798Z,5.33
2023-05-19T02:17:42.980Z,5.67
2023-05-19T02:20:12.285Z,5.08
2023-05-19T02:22:41.375Z,5.55
2023-05-19T02:25:10.853Z,5.25
2023-05-19T02:27:41.456Z,5.65
2023-05-19T02:30:11.025Z,5.17
2023-05-19T02:32:40.487Z,5.33
2023-05-19T02:35:10.458Z,5.22
2023-05-19T02:37:40.190Z,5.35
2023-05-19T02:40:10.959Z,4.92
2023-05-19T02:42:40.121Z,5.37
2023-05-19T02:45:10.066Z,4.95
2023-05-19T02:47:39.787Z,5.00
2023-05-19T02:50:09.997Z,5.50
2023-05-19T02:52:39.216Z,4.75
2023-05-19T02:55:08.937Z,4.83
2023-05-19T02:57:37.744Z,4.95
2023-05-19T03:00:08.495Z,4.67
2023-05-19T03:02:39.583Z,4.65
2023-05-19T03:05:10.477Z,4.72
2023-05-19T03:07:40.255Z,4.72
2023-05-19T03:10:09.371Z,5.03
2023-05-19T03:12:38.144Z,4.97
2023-05-19T03:15:08.416Z,5.00
2023-05-19T03:17:37.489Z,4.55
2023-05-19T03:20:08.097Z,4.65
2023-05-19T03:22:37.675Z,4.50
2023-05-19T03:25:07.741Z,4.47
2023-05-19T03:27:37.010Z,4.58
2023-05-19T03:30:07.315Z,4.62
2023-05-19T03:32:40.136Z,4.25
2023-05-19T03:35:10.356Z,4.08
2023-05-19T03:37:40.053Z,4.30
2023-05-19T03:40:11.268Z,4.53
2023-05-19T03:42:40.830Z,4.95
2023-05-19T03:45:10.713Z,4.10
2023-05-19T03:47:39.978Z,4.17
2023-05-19T03:50:11.822Z,4.20
2023-05-19T03:52:47.331Z,4.20
2023-05-19T03:55:28.867Z,4.30
2023-05-19T03:57:58.536Z,3.75
2023-05-19T04:00:27.825Z,4.20
2023-05-19T04:02:56.722Z,4.25
2023-05-19T04:05:27.584Z,3.92
2023-05-19T04:08:17.971Z,4.30
2023-05-19T04:10:47.800Z,4.25
2023-05-19T04:13:16.783Z,4.40
2023-05-19T04:15:46.450Z,4.15
2023-05-19T04:18:16.961Z,4.05
2023-05-19T04:20:45.919Z,4.30
2023-05-19T04:23:14.783Z,4.37
2023-05-19T04:25:43.783Z,4.50
2023-05-19T04:28:13.100Z,5.40
2023-05-19T04:30:42.913Z,4.40
2023-05-19T04:33:11.928Z,4.58
2023-05-19T04:35:41.901Z,4.70
2023-05-19T04:38:13.598Z,4.40
2023-05-19T04:40:43.224Z,4.05
2023-05-19T04:43:12.406Z,4.20
2023-05-19T04:45:42.670Z,4.50
2023-05-19T04:48:14.001Z,4.78
2023-05-19T04:50:42.763Z,4.50
2023-05-19T04:53:12.025Z,5.10
2023-05-19T04:55:42.300Z,4.90
2023-05-19T04:58:11.483Z,4.85
2023-05-19T05:00:40.515Z,4.62
2023-05-19T05:03:14.226Z,5.58
2023-05-19T05:05:43.197Z,9.23
2023-05-19T05:08:13.276Z,5.28
2023-05-19T05:10:43.747Z,6.20
2023-05-19T05:13:14.924Z,5.08
2023-05-19T05:15:45.122Z,4.75
2023-05-19T05:18:16.638Z,5.15
2023-05-19T05:20:46.864Z,4.40
2023-05-19T05:23:17.197Z,4.55
2023-05-19T05:25:49.022Z,4.50
2023-05-19T05:28:20.748Z,4.40
2023-05-19T05:30:51.657Z,4.70
2023-05-19T05:33:22.030Z,4.15
2023-05-19T05:35:51.228Z,4.45
2023-05-19T05:38:21.599Z,4.87
2023-05-19T05:40:50.946Z,5.03
2023-05-19T05:43:19.716Z,4.83
2023-05-19T05:45:57.261Z,5.08
2023-05-19T05:48:27.193Z,5.30
2023-05-19T05:50:57.799Z,4.25
2023-05-19T05:53:30.519Z,4.53
2023-05-19T05:56:01.996Z,5.25
2023-05-19T05:58:37.379Z,5.03
2023-05-19T06:01:08.858Z,5.28
2023-05-19T06:03:40.604Z,5.00
2023-05-19T06:06:11.515Z,5.00
2023-05-19T06:08:41.582Z,5.62
2023-05-19T06:11:10.329Z,4.90
2023-05-19T06:13:43.806Z,5.28
2023-05-19T06:16:14.732Z,4.72
2023-05-19T06:18:46.566Z,5.10
2023-05-19T06:21:15.614Z,4.47
2023-05-19T06:23:44.592Z,5.70
2023-05-19T06:26:13.797Z,5.12
2023-05-19T06:28:43.769Z,5.65
2023-05-19T06:31:12.575Z,4.90
2023-05-19T06:33:46.291Z,5.17
2023-05-19T06:36:15.509Z,5.95
2023-05-19T06:38:46.279Z,4.75
2023-05-19T06:41:15.626Z,5.05
2023-05-19T06:43:44.531Z,5.15
2023-05-19T06:46:17.658Z,5.87
2023-05-19T06:48:48.456Z,5.20
2023-05-19T06:51:19.719Z,4.90
2023-05-19T06:53:50.356Z,4.78
2023-05-19T06:56:19.253Z,4.70
2023-05-19T06:58:48.213Z,4.70
2023-05-19T07:01:16.855Z,5.78
2023-05-19T07:03:47.645Z,4.67
2023-05-19T07:06:17.766Z,4.87
2023-05-19T07:08:47.795Z,5.33
2023-05-19T07:11:17.552Z,5.40
2023-05-19T07:13:46.912Z,5.45
2023-05-19T07:16:17.705Z,4.62
2023-05-19T07:18:47.359Z,5.47
2023-05-19T07:21:16.565Z,5.37
2023-05-19T07:23:46.507Z,5.40
2023-05-19T07:26:15.430Z,5.40
2023-05-19T07:28:44.396Z,5.47
2023-05-19T07:31:13.465Z,5.30
2023-05-19T07:33:42.680Z,5.58
2023-05-19T07:36:13.096Z,5.95
2023-05-19T07:38:42.018Z,6.40
2023-05-19T07:41:11.434Z,5.95
2023-05-19T07:43:41.801Z,5.83
2023-05-19T07:46:11.412Z,5.87
2023-05-19T07:48:40.801Z,5.62
2023-05-19T07:51:10.119Z,5.45
2023-05-19T07:53:42.526Z,8.08
2023-05-19T07:56:12.142Z,6.62
2023-05-19T07:58:44.222Z,5.78
2023-05-19T08:01:13.377Z,6.25
2023-05-19T08:03:42.850Z,5.33
2023-05-19T08:06:14.325Z,5.55
2023-05-19T08:08:44.165Z,5.50
2023-05-19T08:11:19.397Z,6.37
2023-05-19T08:13:51.510Z,5.08
2023-05-19T08:16:21.459Z,4.78
2023-05-19T08:18:50.158Z,5.35
2023-05-19T08:21:18.949Z,5.78
2023-05-19T08:23:48.844Z,5.50
2023-05-19T08:26:18.594Z,6.10
2023-05-19T08:28:47.806Z,5.15
2023-05-19T08:31:18.358Z,6.30
2023-05-19T08:33:47.862Z,5.70
2023-05-19T08:36:16.824Z,5.60
2023-05-19T08:38:46.023Z,5.47
2023-05-19T08:41:16.482Z,5.37
2023-05-19T08:43:46.173Z,5.20
2023-05-19T08:46:16.340Z,5.20
2023-05-19T08:48:45.303Z,5.10
2023-05-19T08:51:24.938Z,5.40
2023-05-19T08:53:55.453Z,5.80
2023-05-19T08:56:25.000Z,5.28
2023-05-19T08:58:54.178Z,6.08
2023-05-19T09:01:23.693Z,6.45
2023-05-19T09:03:52.420Z,5.25
2023-05-19T09:06:21.715Z,6.60
2023-05-19T09:08:52.093Z,5.83
2023-05-19T09:11:22.429Z,5.72
2023-05-19T09:13:53.257Z,6.65
2023-05-19T09:16:22.246Z,6.65
2023-05-19T09:18:57.663Z,6.53
2023-05-19T09:21:32.758Z,6.30
2023-05-19T09:24:07.447Z,7.55
2023-05-19T09:26:40.451Z,6.45
2023-05-19T09:29:17.166Z,6.62
2023-05-19T09:31:52.044Z,6.67
2023-05-19T09:34:21.807Z,6.60
2023-05-19T09:36:52.848Z,6.12
2023-05-19T09:39:26.016Z,6.28
2023-05-19T09:41:55.804Z,7.00
2023-05-19T09:44:30.148Z,7.08
2023-05-19T09:46:59.632Z,7.22
2023-05-19T09:49:29.949Z,6.33
2023-05-19T09:52:00.347Z,6.60
2023-05-19T09:54:29.968Z,7.08
2023-05-19T09:57:03.468Z,6.12
2023-05-19T09:59:33.742Z,5.85
2023-05-19T10:02:03.263Z,6.15
2023-05-19T10:04:32.508Z,6.40
2023-05-19T10:07:03.477Z,6.58
2023-05-19T10:09:33.736Z,6.40
2023-05-19T10:12:02.814Z,6.37
2023-05-19T10:14:31.699Z,7.03
2023-05-19T10:17:00.749Z,6.90
2023-05-19T10:19:31.759Z,7.42
2023-05-19T10:22:00.933Z,6.03
2023-05-19T10:24:30.236Z,7.40
2023-05-19T10:27:05.607Z,8.05
2023-05-19T10:29:37.821Z,6.62
2023-05-19T10:32:12.423Z,6.60
2023-05-19T10:35:24.821Z,6.75
2023-05-19T10:38:34.546Z,5.37
2023-05-19T10:41:26.781Z,5.60
2023-05-19T10:44:12.143Z,6.62
2023-05-19T10:46:42.794Z,5.37
2023-05-19T10:49:11.462Z,4.70
2023-05-19T10:51:40.268Z,5.17
2023-05-19T10:54:10.303Z,4.95
2023-05-19T10:56:42.161Z,5.87
2023-05-19T10:59:32.097Z,5.12
2023-05-19T11:02:05.411Z,5.22
2023-05-19T11:04:52.235Z,5.80
2023-05-19T11:07:22.189Z,6.28
2023-05-19T11:09:52.796Z,5.42
2023-05-19T11:12:25.459Z,6.40
2023-05-19T11:14:55.079Z,6.70
2023-05-19T11:17:27.130Z,5.95
2023-05-19T11:19:56.967Z,5.85
2023-05-19T11:22:27.302Z,5.80
2023-05-19T11:24:56.224Z,6.40
2023-05-19T11:27:33.148Z,6.45
2023-05-19T11:30:14.829Z,7.15
2023-05-19T11:32:47.276Z,6.80
2023-05-19T11:35:18.740Z,6.33
2023-05-19T11:37:47.694Z,6.65
2023-05-19T11:40:17.287Z,7.45
2023-05-19T11:42:45.979Z,6.03
2023-05-19T11:45:14.849Z,6.60
2023-05-19T11:48:01.234Z,6.10
2023-05-19T11:50:19.835Z,6.03
2023-05-19T11:52:48.977Z,5.75
2023-05-19T11:55:21.491Z,5.72
2023-05-19T11:58:04.492Z,6.17
2023-05-19T12:00:38.985Z,5.67
2023-05-19T12:03:07.777Z,5.10
2023-05-19T12:05:41.843Z,5.12
2023-05-19T12:08:09.222Z,5.40
2023-05-19T12:10:38.698Z,5.83
2023-05-19T12:13:11.011Z,5.60
2023-05-19T12:15:40.171Z,5.67
2023-05-19T12:18:09.481Z,7.80
2023-05-19T12:20:38.381Z,6.00
2023-05-19T12:23:07.909Z,5.72
2023-05-19T12:25:38.259Z,6.00
2023-05-19T12:28:07.091Z,5.87
2023-05-19T12:30:36.596Z,5.80
2023-05-19T12:33:06.118Z,7.03
2023-05-19T12:35:37.859Z,6.60
2023-05-19T12:38:10.668Z,6.05
2023-05-19T12:40:39.966Z,6.60
2023-05-19T12:43:10.192Z,5.83
2023-05-19T12:45:42.928Z,5.50
2023-05-19T12:48:14.836Z,6.05
2023-05-19T12:50:46.204Z,7.08
2023-05-19T12:53:15.942Z,6.35
2023-05-19T12:55:45.998Z,6.80
2023-05-19T12:58:16.370Z,6.25
2023-05-19T13:00:47.681Z,7.42
2023-05-19T13:03:20.279Z,6.78
2023-05-19T13:05:51.016Z,6.85
2023-05-19T13:08:21.673Z,6.83
2023-05-19T13:10:50.519Z,7.22
2023-05-19T13:13:19.401Z,6.55
2023-05-19T13:15:52.571Z,5.95
2023-05-19T13:18:22.291Z,6.05
2023-05-19T13:20:52.891Z,6.35
2023-05-19T13:23:22.145Z,6.25
2023-05-19T13:25:51.765Z,6.75
2023-05-19T13:28:21.186Z,6.53
2023-05-19T13:30:51.216Z,6.65
2023-05-19T13:33:20.684Z,6.95
2023-05-19T13:35:49.807Z,6.90
2023-05-19T13:38:18.836Z,6.97
2023-05-19T13:40:48.209Z,6.92
2023-05-19T13:43:17.733Z,7.50
2023-05-19T13:45:47.729Z,7.33
2023-05-19T13:48:17.014Z,7.42
2023-05-19T13:50:45.797Z,7.85
2023-05-19T13:53:14.299Z,7.62
2023-05-19T13:55:46.882Z,8.05
2023-05-19T13:58:17.596Z,8.28
2023-05-19T14:00:46.604Z,8.70
2023-05-19T14:03:17.091Z,9.10
2023-05-19T14:05:47.413Z,9.65
2023-05-19T14:08:16.986Z,9.05
2023-05-19T14:10:52.434Z,8.60
2023-05-19T14:13:32.685Z,10.05
2023-05-19T14:15:53.195Z,9.80
2023-05-19T14:18:22.344Z,10.03
2023-05-19T14:20:51.180Z,10.35
2023-05-19T14:23:21.274Z,9.70
2023-05-19T14:25:50.476Z,9.98
2023-05-19T14:28:19.622Z,10.10
2023-05-19T14:30:48.748Z,9.63
2023-05-19T14:33:17.796Z,9.60
2023-05-19T14:35:46.765Z,9.10
2023-05-19T14:38:15.770Z,10.35
2023-05-19T14:40:47.925Z,9.68
2023-05-19T14:43:16.947Z,9.23
2023-05-19T14:45:46.609Z,9.60
2023-05-19T14:48:15.884Z,9.45
2023-05-19T14:50:45.156Z,9.25
2023-05-19T14:53:13.814Z,9.25
2023-05-19T14:55:43.648Z,9.13
2023-05-19T14:58:28.351Z,8.83
2023-05-19T15:00:49.942Z,9.15
2023-05-19T15:03:19.572Z,9.08
2023-05-19T15:05:49.041Z,8.75
2023-05-19T15:08:17.634Z,9.03
2023-05-19T15:10:50.279Z,9.40
2023-05-19T15:13:21.545Z,9.43
2023-05-19T15:16:12.533Z,8.70
2023-05-19T15:18:27.981Z,8.40
2023-05-19T15:20:56.550Z,8.35
2023-05-19T15:23:25.230Z,8.63
2023-05-19T15:25:54.013Z,9.10
2023-05-19T15:28:22.979Z,9.98
2023-05-19T15:30:52.850Z,9.85
2023-05-19T15:33:21.576Z,8.78
2023-05-19T15:35:51.860Z,8.80
2023-05-19T15:38:20.925Z,8.63
2023-05-19T15:40:51.195Z,8.15
2023-05-19T15:43:23.121Z,9.78
2023-05-19T15:45:53.863Z,7.97
2023-05-19T15:48:22.937Z,8.50
2023-05-19T15:50:51.840Z,7.92
2023-05-19T15:53:21.411Z,8.63
2023-05-19T15:55:51.056Z,7.90
2023-05-19T15:58:20.563Z,7.70
2023-05-19T16:00:49.478Z,8.35
2023-05-19T16:03:19.735Z,7.42
2023-05-19T16:05:51.658Z,7.50
2023-05-19T16:08:21.271Z,8.25
2023-05-19T16:10:50.363Z,8.28
2023-05-19T16:13:20.476Z,8.05
2023-05-19T16:15:48.998Z,8.13
2023-05-19T16:18:17.847Z,9.18
2023-05-19T16:20:46.831Z,8.13
2023-05-19T16:23:16.598Z,8.30
2023-05-19T16:25:45.968Z,8.73
2023-05-19T16:28:16.170Z,8.63
2023-05-19T16:30:45.902Z,8.00
2023-05-19T16:33:14.592Z,8.70
2023-05-19T16:35:43.852Z,8.45
2023-05-19T16:38:13.317Z,9.70
2023-05-19T16:40:42.628Z,13.40
2023-05-19T16:43:11.934Z,7.97
2023-05-19T16:45:41.217Z,8.20
2023-05-19T16:48:10.035Z,8.10
2023-05-19T16:50:39.798Z,7.85
2023-05-19T16:53:09.314Z,8.00
2023-05-19T16:55:38.408Z,7.75
2023-05-19T16:58:10.538Z,8.05
2023-05-19T17:00:40.898Z,7.97
2023-05-19T17:03:10.622Z,7.80
2023-05-19T17:05:41.755Z,8.15
2023-05-19T17:08:12.347Z,8.10
2023-05-19T17:10:41.798Z,8.25
2023-05-19T17:13:11.614Z,8.30
2023-05-19T17:15:43.453Z,7.75
2023-05-19T17:18:14.634Z,7.47
2023-05-19T17:20:44.117Z,7.85
2023-05-19T17:23:13.741Z,7.10
2023-05-19T17:25:43.457Z,7.55
2023-05-19T17:28:13.433Z,6.42
2023-05-19T17:30:42.985Z,7.10
2023-05-19T17:33:12.852Z,7.30
2023-05-19T17:35:42.291Z,7.00
2023-05-19T17:38:11.488Z,6.42
2023-05-19T17:40:42.201Z,6.70
2023-05-19T17:43:11.839Z,7.00
2023-05-19T17:45:43.103Z,6.05
2023-05-19T17:48:12.490Z,6.03
2023-05-19T17:50:41.795Z,6.50
2023-05-19T17:53:12.596Z,6.30
2023-05-19T17:55:43.081Z,7.85
2023-05-19T17:58:13.974Z,6.40
2023-05-19T18:00:43.331Z,6.75
2023-05-19T18:03:13.688Z,7.22
2023-05-19T18:05:45.213Z,6.78
2023-05-19T18:08:16.313Z,6.03
2023-05-19T18:10:48.583Z,6.70
2023-05-19T18:13:18.688Z,6.28
2023-05-19T18:15:48.224Z,6.58
2023-05-19T18:18:18.193Z,6.10
2023-05-19T18:20:48.162Z,6.30
2023-05-19T18:23:18.912Z,7.28
2023-05-19T18:25:53.042Z,6.60
2023-05-19T18:28:24.288Z,7.53
2023-05-19T18:31:04.399Z,7.70
2023-05-19T18:33:34.213Z,7.25
2023-05-19T18:36:04.264Z,6.37
2023-05-19T18:38:33.031Z,6.50
2023-05-19T18:41:02.030Z,6.15
2023-05-19T18:43:32.189Z,7.12
2023-05-19T18:46:01.277Z,7.10
2023-05-19T18:48:32.809Z,6.40
2023-05-19T18:51:03.920Z,6.28
2023-05-19T18:53:35.104Z,6.45
2023-05-19T18:56:05.164Z,6.17
2023-05-19T18:58:34.661Z,5.97
2023-05-19T19:01:05.137Z,6.22
2023-05-19T19:03:35.270Z,6.28
2023-05-19T19:06:04.849Z,6.83
2023-05-19T19:08:34.744Z,6.90
2023-05-19T19:11:04.990Z,6.22
2023-05-19T19:13:34.227Z,6.05
2023-05-19T19:16:03.969Z,6.65
2023-05-19T19:18:35.250Z,6.60
2023-05-19T19:21:05.642Z,6.17
2023-05-19T19:23:35.215Z,8.05
2023-05-19T19:26:05.033Z,6.55
2023-05-19T19:28:34.958Z,6.65
2023-05-19T19:31:04.867Z,7.40
2023-05-19T19:33:35.912Z,6.83
2023-05-19T19:36:06.853Z,6.83
2023-05-19T19:38:36.060Z,6.28
2023-05-19T19:41:05.800Z,6.62
2023-05-19T19:43:35.255Z,6.33
2023-05-19T19:46:07.972Z,6.62
2023-05-19T19:48:41.075Z,6.97
2023-05-19T19:51:11.249Z,6.22
2023-05-19T19:53:40.855Z,6.40
2023-05-19T19:56:11.917Z,7.03
2023-05-19T19:58:41.122Z,6.95
2023-05-19T20:01:11.289Z,7.22
2023-05-19T20:03:40.674Z,6.60
2023-05-19T20:06:10.330Z,6.72
2023-05-19T20:08:40.711Z,6.67
2023-05-19T20:11:14.578Z,6.95
2023-05-19T20:13:43.400Z,6.75
2023-05-19T20:16:12.836Z,7.03
2023-05-19T20:18:42.497Z,7.15
2023-05-19T20:21:12.008Z,7.35
2023-05-19T20:23:42.244Z,7.65
2023-05-19T20:26:13.450Z,6.70
2023-05-19T20:28:43.111Z,6.72
2023-05-19T20:31:12.930Z,6.97
2023-05-19T20:33:43.921Z,7.33
2023-05-19T20:36:13.336Z,7.05
2023-05-19T20:38:43.349Z,18.73
2023-05-19T20:41:13.001Z,9.23
2023-05-19T20:43:42.258Z,6.85
2023-05-19T20:46:11.654Z,6.90
2023-05-19T20:48:41.539Z,7.05
2023-05-19T20:51:11.330Z,6.50
2023-05-19T20:53:40.396Z,6.20
2023-05-19T20:56:10.617Z,6.78
2023-05-19T20:58:39.979Z,6.50
2023-05-19T21:01:09.416Z,6.50
2023-05-19T21:03:39.201Z,6.40
2023-05-19T21:06:08.630Z,6.28
2023-05-19T21:08:38.348Z,6.97
2023-05-19T21:11:08.097Z,6.30
2023-05-19T21:13:38.900Z,6.15
2023-05-19T21:16:08.601Z,6.72
2023-05-19T21:18:38.372Z,6.72
2023-05-19T21:21:07.986Z,6.30
2023-05-19T21:23:38.852Z,6.20
2023-05-19T21:26:08.303Z,6.47
2023-05-19T21:28:37.733Z,6.28
2023-05-19T21:31:08.276Z,6.12
2023-05-19T21:33:38.347Z,6.67
2023-05-19T21:36:09.360Z,6.40
2023-05-19T21:38:40.927Z,6.20
2023-05-19T21:41:10.483Z,5.75
2023-05-19T21:43:41.995Z,6.17
2023-05-19T21:46:11.647Z,5.92
2023-05-19T21:48:41.237Z,6.15
2023-05-19T21:51:11.039Z,6.25
2023-05-19T21:53:40.245Z,6.37
2023-05-19T21:56:10.276Z,6.03
2023-05-19T21:58:41.334Z,6.40
2023-05-19T22:01:10.415Z,6.10
2023-05-19T22:03:40.833Z,5.97
2023-05-19T22:06:10.114Z,6.05
2023-05-19T22:08:39.734Z,6.10
2023-05-19T22:11:10.160Z,6.03
2023-05-19T22:13:41.051Z,5.87
2023-05-19T22:16:12.113Z,5.75
2023-05-19T22:18:42.221Z,6.05
2023-05-19T22:21:11.675Z,6.33
2023-05-19T22:23:41.159Z,6.00
2023-05-19T22:26:11.202Z,5.40
2023-05-19T22:28:41.324Z,5.90
2023-05-19T22:31:11.125Z,5.90
2023-05-19T22:33:41.351Z,6.42
2023-05-19T22:36:11.680Z,6.12
2023-05-19T22:38:41.277Z,6.35
2023-05-19T22:41:11.047Z,6.03
2023-05-19T22:43:40.560Z,6.15
2023-05-19T22:46:09.871Z,5.80
2023-05-19T22:48:39.349Z,6.03
2023-05-19T22:51:08.512Z,5.97
2023-05-19T22:53:37.562Z,5.72
2023-05-19T22:56:07.001Z,6.00
2023-05-19T22:58:36.345Z,6.05
2023-05-19T23:01:05.376Z,6.22
2023-05-19T23:03:36.028Z,5.55
2023-05-19T23:06:05.906Z,5.55
2023-05-19T23:08:35.268Z,5.55
2023-05-19T23:11:04.490Z,5.20
2023-05-19T23:13:36.137Z,5.50
2023-05-19T23:16:08.920Z,5.47
2023-05-19T23:18:40.170Z,5.70
2023-05-19T23:21:10.390Z,5.12
2023-05-19T23:23:40.643Z,5.30
2023-05-19T23:26:09.385Z,5.22
2023-05-19T23:28:38.409Z,6.12
2023-05-19T23:31:07.916Z,5.72
2023-05-19T23:33:38.085Z,5.75
2023-05-19T23:36:09.599Z,5.58
2023-05-19T23:38:39.618Z,5.40
2023-05-19T23:41:08.893Z,6.05
2023-05-19T23:43:38.222Z,5.55
2023-05-19T23:46:07.633Z,5.70
2023-05-19T23:48:38.452Z,5.70
2023-05-19T23:51:08.373Z,5.42
2023-05-19T23:53:39.544Z,5.47
2023-05-19T23:56:08.856Z,5.55
2023-05-19T23:58:38.024Z,5.42
